Time;durP1;ratioP1;P1;durP2;ratioP2;P2;SDS_P1;SDS_P2;PMS_P1;PMS_P2;Temp;Humidity;BMP_temperature;BMP_pressure;BME280_temperature;BME280_humidity;BME280_pressure;Samples;Min_cycle;Max_cycle;Signal;HPM_P1;HPM_P2
2023/11/26 00:00:04;;;;;;;;;;;;;;;25.32;40.64;93949.16;5030098;28;9066;-52
2023/11/26 00:02:32;;;;;;;;;;;;;;;25.28;41.29;93947.94;5011106;28;7011;-53
2023/11/26 00:05:08;;;;;;;;;;;;;;;25.33;41.01;93952.66;5012344;28;7243;-52
2023/11/26 00:07:39;;;;;;;;;;;;;;;25.30;41.05;93948.16;5005131;28;7000;-53
2023/11/26 00:10:16;;;;;;;;;;;;;;;25.34;40.76;93943.09;5000213;28;6976;-52
2023/11/26 00:12:54;;;;;;;;;;;;;;;25.34;40.72;93948.63;5021452;28;8722;-53
2023/11/26 00:15:33;;;;;;;;;;;;;;;25.32;41.03;93951.91;5018700;28;7243;-54
2023/11/26 00:18:32;;;;;;;;;;;;;;;25.31;40.49;93953.19;4999136;28;8853;-54
2023/11/26 00:21:01;;;;;;;;;;;;;;;25.32;41.38;93957.41;4975828;28;7279;-54
2023/11/26 00:23:36;;;;;;;;;;;;;;;25.33;41.16;93963.66;4967464;28;7326;-53
2023/11/26 00:26:34;;;;;;;;;;;;;;;25.33;41.35;93963.66;4967177;28;7222;-54
2023/11/26 00:29:07;;;;;;;;;;;;;;;25.32;40.93;93967.66;4960966;28;7303;-53
2023/11/26 00:32:00;;;;;;;;;;;;;;;25.33;41.46;93977.44;4972254;28;9190;-54
2023/11/26 00:34:28;;;;;;;;;;;;;;;25.29;40.75;93974.94;4975982;28;7232;-52
2023/11/26 00:36:54;;;;;;;;;;;;;;;25.30;41.34;93970.94;4967611;28;6979;-53
2023/11/26 00:39:32;;;;;;;;;;;;;;;25.26;41.12;93975.25;4975326;28;8063;-54
2023/11/26 00:42:01;;;;;;;;;;;;;;;25.28;41.01;93978.97;4964897;28;7303;-54
2023/11/26 00:44:42;;;;;;;;;;;;;;;25.27;41.47;93980.22;4961186;28;7249;-54
2023/11/26 00:47:16;;;;;;;;;;;;;;;25.26;41.21;93981.50;4967235;28;6998;-53
2023/11/26 00:49:51;;;;;;;;;;;;;;;25.30;41.19;93964.69;4975849;28;7253;-54
2023/11/26 00:52:26;;;;;;;;;;;;;;;25.29;40.95;93963.94;4966229;28;8935;-54
2023/11/26 00:54:52;;;;;;;;;;;;;;;25.31;40.86;93977.19;4974637;28;8782;-53
2023/11/26 00:57:26;;;;;;;;;;;;;;;25.31;41.47;93988.22;5049922;28;7232;-53
2023/11/26 01:00:17;;;;;;;;;;;;;;;25.31;40.93;93988.22;5057968;28;7202;-53
2023/11/26 01:03:18;;;;;;;;;;;;;;;25.30;40.81;94000.47;5063364;28;9566;-59
2023/11/26 01:05:59;;;;;;;;;;;;;;;25.29;41.03;93993.50;5054083;28;8901;-59
2023/11/26 01:08:25;;;;;;;;;;;;;;;25.27;41.08;93994.00;5068384;28;7957;-58
2023/11/26 01:11:26;;;;;;;;;;;;;;;25.32;41.17;94006.19;5075294;28;9150;-59
2023/11/26 01:13:54;;;;;;;;;;;;;;;25.30;40.97;94001.22;5018135;28;7249;-58
2023/11/26 01:16:29;;;;;;;;;;;;;;;25.31;41.12;93999.22;5010662;28;7088;-59
2023/11/26 01:18:59;;;;;;;;;;;;;;;25.29;41.26;94002.47;5026092;28;8800;-58
2023/11/26 01:21:38;;;;;;;;;;;;;;;25.31;41.54;93999.22;5028515;28;7310;-59
2023/11/26 01:24:17;;;;;;;;;;;;;;;25.31;40.86;93994.47;5010386;28;8728;-59
2023/11/26 01:26:54;;;;;;;;;;;;;;;25.31;40.65;93993.72;5007653;28;7232;-59
2023/11/26 01:29:27;;;;;;;;;;;;;;;25.28;40.88;93994.75;5015644;28;7072;-59
2023/11/26 01:32:04;;;;;;;;;;;;;;;25.29;41.56;93996.97;5020909;28;8829;-59
2023/11/26 01:34:40;;;;;;;;;;;;;;;25.27;40.99;93994.00;5008958;28;9240;-59
2023/11/26 01:37:19;;;;;;;;;;;;;;;25.29;41.48;94001.75;5013274;28;7224;-59
2023/11/26 01:40:24;;;;;;;;;;;;;;;25.29;40.65;93996.25;5003553;28;7246;-59
2023/11/26 01:42:50;;;;;;;;;;;;;;;25.29;41.52;94001.75;5017855;28;7084;-59
2023/11/26 01:45:19;;;;;;;;;;;;;;;25.26;41.39;94013.78;5025386;28;7280;-59
2023/11/26 01:47:45;;;;;;;;;;;;;;;25.30;41.59;94019.75;4993611;28;9334;-59
2023/11/26 01:50:19;;;;;;;;;;;;;;;25.29;40.64;94024.50;5047534;28;7334;-59
2023/11/26 01:52:48;;;;;;;;;;;;;;;25.30;40.77;94026.00;5077112;28;8789;-59
2023/11/26 01:55:18;;;;;;;;;;;;;;;25.29;41.22;94026.53;5074449;28;9125;-59
2023/11/26 01:57:45;;;;;;;;;;;;;;;25.31;40.79;94024.00;5077256;28;7127;-59
2023/11/26 02:00:21;;;;;;;;;;;;;;;25.31;41.26;94021.25;5048175;28;7234;-58
2023/11/26 02:03:14;;;;;;;;;;;;;;;25.30;41.51;94023.25;5061544;28;8331;-58
2023/11/26 02:05:52;;;;;;;;;;;;;;;25.32;40.54;94025.47;5011413;28;9038;-59
2023/11/26 02:08:20;;;;;;;;;;;;;;;25.32;41.14;94030.97;5004257;28;8080;-59
2023/11/26 02:10:51;;;;;;;;;;;;;;;25.31;40.55;94021.25;4992411;28;8861;-59
2023/11/26 02:13:19;;;;;;;;;;;;;;;25.28;40.66;94027.78;5006612;28;8845;-61
2023/11/26 02:16:25;;;;;;;;;;;;;;;25.31;40.47;94022.00;5006407;28;7233;-61
2023/11/26 02:18:55;;;;;;;;;;;;;;;25.30;41.20;94019.75;4996049;28;7315;-61
2023/11/26 02:21:54;;;;;;;;;;;;;;;25.31;41.30;94029.50;5015942;28;7231;-61
2023/11/26 02:24:44;;;;;;;;;;;;;;;25.30;40.83;94033.50;5001794;28;6983;-61
2023/11/26 02:27:40;;;;;;;;;;;;;;;25.31;40.88;94033.00;4984145;28;7267;-61
2023/11/26 02:30:24;;;;;;;;;;;;;;;25.30;41.55;94030.75;4912370;28;9035;-61
2023/11/26 02:33:30;;;;;;;;;;;;;;;25.30;41.43;94037.00;4950976;28;6944;-61
2023/11/26 02:35:56;;;;;;;;;;;;;;;25.30;41.36;94037.00;4925764;28;9305;-61
2023/11/26 02:38:55;;;;;;;;;;;;;;;25.30;41.14;94041.75;4925546;29;7250;-61
2023/11/26 02:41:24;;;;;;;;;;;;;;;25.26;41.48;94033.06;4899134;28;7108;-61
2023/11/26 02:43:53;;;;;;;;;;;;;;;25.30;40.92;94042.50;4951089;28;8355;-61
2023/11/26 02:46:21;;;;;;;;;;;;;;;25.30;41.18;94039.00;4932526;28;8840;-61
2023/11/26 02:52:26;;;;;;;;;;;;;;;25.27;40.76;94034.56;4916140;29;7135;-61
2023/11/26 02:55:22;;;;;;;;;;;;;;;25.29;41.08;94040.28;4905678;29;7081;-61
2023/11/26 02:58:18;;;;;;;;;;;;;;;25.29;40.49;94034.78;4926550;29;9209;-61
2023/11/26 03:01:19;;;;;;;;;;;;;;;25.30;40.67;94044.50;4934497;29;7008;-61
2023/11/26 03:03:56;;;;;;;;;;;;;;;25.30;40.81;94047.28;4928692;29;7012;-61
2023/11/26 03:06:26;;;;;;;;;;;;;;;25.29;41.08;94045.78;4952521;28;6997;-61
2023/11/26 03:09:29;;;;;;;;;;;;;;;25.30;41.04;94047.28;4960400;28;7076;-61
2023/11/26 03:14:54;;;;;;;;;;;;;;;25.29;41.18;94038.25;4971453;28;7246;-61
2023/11/26 03:17:20;;;;;;;;;;;;;;;25.30;40.96;94041.75;4965066;28;7233;-61
2023/11/26 03:19:55;;;;;;;;;;;;;;;25.27;40.43;94032.53;4998573;28;7346;-61
2023/11/26 03:22:54;;;;;;;;;;;;;;;25.29;40.39;94046.50;4992189;28;7243;-61
2023/11/26 03:25:43;;;;;;;;;;;;;;;25.30;40.71;94061.78;4937668;28;7286;-61
2023/11/26 03:28:13;;;;;;;;;;;;;;;25.30;40.54;94066.53;4934210;28;7864;-61
2023/11/26 03:30:57;;;;;;;;;;;;;;;25.28;40.70;94063.56;4937013;28;9167;-61
2023/11/26 03:33:41;;;;;;;;;;;;;;;25.28;41.46;94080.81;4942967;28;8886;-61
2023/11/26 03:36:10;;;;;;;;;;;;;;;25.29;40.72;94067.81;4961038;28;7369;-61
2023/11/26 03:38:44;;;;;;;;;;;;;;;25.29;41.02;94076.06;4972979;28;7072;-61
2023/11/26 03:41:21;;;;;;;;;;;;;;;25.28;41.07;94077.31;4956267;28;9095;-61
2023/11/26 03:43:51;;;;;;;;;;;;;;;25.29;41.36;94078.81;4973406;28;7290;-61
2023/11/26 03:46:18;;;;;;;;;;;;;;;25.29;40.54;94084.34;4974258;28;7511;-61
2023/11/26 03:48:55;;;;;;;;;;;;;;;25.28;41.28;94082.81;4972034;28;7039;-61
2023/11/26 03:51:50;;;;;;;;;;;;;;;25.30;40.99;94085.81;4973349;28;9179;-62
2023/11/26 03:54:16;;;;;;;;;;;;;;;25.29;40.54;94089.84;4942203;28;7317;-61
2023/11/26 03:57:17;;;;;;;;;;;;;;;25.27;41.24;94084.09;4953771;28;7227;-61
2023/11/26 04:00:10;;;;;;;;;;;;;;;25.27;40.50;94092.38;4877535;29;9099;-61
2023/11/26 04:02:53;;;;;;;;;;;;;;;25.26;40.84;94088.84;4922226;29;7224;-61
2023/11/26 04:09:18;;;;;;;;;;;;;;;25.27;40.81;94087.59;4905869;29;7288;-61
2023/11/26 04:12:18;;;;;;;;;;;;;;;25.27;40.76;94087.59;4880434;29;9564;-61
2023/11/26 04:15:03;;;;;;;;;;;;;;;25.26;41.00;94082.59;4857088;29;9131;-61
2023/11/26 04:17:30;;;;;;;;;;;;;;;25.25;41.16;94084.59;4866423;29;7266;-61
2023/11/26 04:20:08;;;;;;;;;;;;;;;25.26;40.41;94090.84;4876390;29;7058;-61
2023/11/26 04:23:03;;;;;;;;;;;;;;;25.28;41.24;94091.09;4877231;29;9088;-61
2023/11/26 04:26:11;;;;;;;;;;;;;;;25.29;40.55;94098.81;4852181;29;7469;-61
2023/11/26 04:28:38;;;;;;;;;;;;;;;25.28;41.24;94096.59;4811829;29;8270;-61
2023/11/26 04:31:13;;;;;;;;;;;;;;;25.27;41.11;94098.59;4824917;29;7424;-61
2023/11/26 04:33:58;;;;;;;;;;;;;;;25.30;40.72;94113.34;4826088;29;7971;-62
2023/11/26 04:36:24;;;;;;;;;;;;;;;25.29;40.88;94111.84;4840070;29;9086;-62
2023/11/26 04:39:02;;;;;;;;;;;;;;;25.29;40.92;94109.09;4825080;29;7272;-62
2023/11/26 04:41:47;;;;;;;;;;;;;;;25.29;40.38;94109.84;4849454;29;7263;-62
2023/11/26 04:44:29;;;;;;;;;;;;;;;25.29;40.89;94114.63;4824982;29;8794;-62
2023/11/26 04:47:21;;;;;;;;;;;;;;;25.29;40.56;94114.63;4886375;29;9084;-62
2023/11/26 04:50:05;;;;;;;;;;;;;;;25.27;40.83;94106.84;4952899;29;9876;-62
2023/11/26 04:52:51;;;;;;;;;;;;;;;25.29;40.45;94104.31;4936557;29;7277;-62
2023/11/26 04:55:19;;;;;;;;;;;;;;;25.30;40.79;94103.06;4937255;28;7080;-62
2023/11/26 04:57:54;;;;;;;;;;;;;;;25.29;41.33;94104.31;4940073;28;7253;-62
2023/11/26 05:00:38;;;;;;;;;;;;;;;25.30;40.82;94103.06;4935863;28;7214;-62
2023/11/26 05:03:35;;;;;;;;;;;;;;;25.30;40.78;94103.06;4994084;28;7237;-62
2023/11/26 05:06:13;;;;;;;;;;;;;;;25.32;41.30;94099.81;5048309;28;8749;-62
2023/11/26 05:08:46;;;;;;;;;;;;;;;25.30;40.49;94105.81;5045598;28;6985;-62
2023/11/26 05:11:40;;;;;;;;;;;;;;;25.31;41.49;94103.81;5064602;28;7240;-62
2023/11/26 05:14:09;;;;;;;;;;;;;;;25.30;41.06;94096.81;5075576;28;7261;-62
2023/11/26 05:16:44;;;;;;;;;;;;;;;25.28;40.43;94102.09;5050470;28;7974;-62
2023/11/26 05:19:11;;;;;;;;;;;;;;;25.27;41.21;94103.38;5063605;28;7213;-62
2023/11/26 05:21:41;;;;;;;;;;;;;;;25.31;41.29;94117.59;5062863;28;9064;-62
2023/11/26 05:24:18;;;;;;;;;;;;;;;25.31;40.77;94112.09;5058540;28;7247;-62
2023/11/26 05:30:35;;;;;;;;;;;;;;;25.28;41.08;94124.88;5073546;28;8978;-62
2023/11/26 05:33:01;;;;;;;;;;;;;;;25.29;40.56;94136.63;5059237;28;8826;-62
2023/11/26 05:35:33;;;;;;;;;;;;;;;25.29;40.73;94139.38;5078395;28;7324;-63
2023/11/26 05:37:59;;;;;;;;;;;;;;;25.31;41.39;94147.88;5062641;28;7079;-63
2023/11/26 05:40:25;;;;;;;;;;;;;;;25.29;41.18;94134.59;5064402;28;6984;-62
2023/11/26 05:42:51;;;;;;;;;;;;;;;25.31;40.81;94147.88;5061282;28;7135;-60
2023/11/26 05:45:19;;;;;;;;;;;;;;;25.32;40.85;94141.09;5057757;28;7161;-60
2023/11/26 05:47:47;;;;;;;;;;;;;;;25.36;40.86;94145.06;5061737;28;9087;-60
2023/11/26 05:50:15;;;;;;;;;;;;;;;25.36;41.26;94144.31;5053058;28;7674;-60
2023/11/26 05:52:41;;;;;;;;;;;;;;;25.39;40.59;94135.78;5057651;28;9037;-60
2023/11/26 05:55:08;;;;;;;;;;;;;;;25.41;40.76;94146.25;5062970;28;7239;-60
2023/11/26 05:57:37;;;;;;;;;;;;;;;25.38;40.68;94148.03;5055398;28;7253;-60
2023/11/26 06:00:06;;;;;;;;;;;;;;;25.40;40.82;94155.81;5056779;28;9070;-60
2023/11/26 06:02:33;;;;;;;;;;;;;;;25.41;41.22;94160.03;5072568;28;7375;-60
2023/11/26 06:04:58;;;;;;;;;;;;;;;25.38;41.26;94155.56;5059421;28;9053;-60
2023/11/26 06:07:24;;;;;;;;;;;;;;;25.37;40.59;94152.06;5053870;28;7233;-60
2023/11/26 06:09:50;;;;;;;;;;;;;;;25.38;41.38;94169.34;5057544;28;7402;-61
2023/11/26 06:12:16;;;;;;;;;;;;;;;25.40;40.68;94166.81;5066402;28;7470;-60
2023/11/26 06:14:45;;;;;;;;;;;;;;;25.34;41.33;94158.59;5072051;28;8920;-60
2023/11/26 06:17:23;;;;;;;;;;;;;;;25.34;41.21;94161.34;5067846;28;7452;-61
2023/11/26 06:19:49;;;;;;;;;;;;;;;25.35;41.34;94167.59;5068434;28;7209;-60
2023/11/26 06:22:21;;;;;;;;;;;;;;;25.34;41.27;94168.84;5066274;28;7246;-60
2023/11/26 06:24:48;;;;;;;;;;;;;;;25.32;41.50;94165.88;5074060;28;7308;-60
2023/11/26 06:27:17;;;;;;;;;;;;;;;25.32;41.11;94166.63;5074899;28;7290;-60
2023/11/26 06:29:43;;;;;;;;;;;;;;;25.32;41.58;94171.38;5056142;28;8686;-60
2023/11/26 06:32:11;;;;;;;;;;;;;;;25.32;41.75;94171.38;5061619;28;7213;-60
2023/11/26 06:34:59;;;;;;;;;;;;;;;25.32;40.79;94166.63;5044862;28;7248;-60
2023/11/26 06:37:27;;;;;;;;;;;;;;;25.31;41.23;94175.41;5067708;28;7251;-60
2023/11/26 06:39:54;;;;;;;;;;;;;;;25.31;40.75;94178.16;5053814;28;8760;-60
2023/11/26 06:42:21;;;;;;;;;;;;;;;25.31;41.13;94178.91;5067221;28;9063;-60
2023/11/26 06:44:48;;;;;;;;;;;;;;;25.32;40.85;94176.88;5055883;28;6999;-60
2023/11/26 06:47:16;;;;;;;;;;;;;;;25.31;41.57;94176.16;5057181;28;6975;-60
2023/11/26 06:49:43;;;;;;;;;;;;;;;25.29;41.67;94181.41;5073424;28;7446;-60
2023/11/26 06:52:35;;;;;;;;;;;;;;;25.32;40.63;94185.91;5077693;28;7023;-59
2023/11/26 06:55:05;;;;;;;;;;;;;;;25.31;41.67;94178.16;5047512;28;7225;-59
2023/11/26 06:57:33;;;;;;;;;;;;;;;25.33;40.83;94181.13;5071482;28;8765;-59
2023/11/26 07:00:03;;;;;;;;;;;;;;;25.32;41.29;94183.13;5055349;28;7283;-60
2023/11/26 07:02:31;;;;;;;;;;;;;;;25.34;40.92;94188.13;5052701;28;7062;-59
2023/11/26 07:05:16;;;;;;;;;;;;;;;25.35;41.22;94193.13;5063342;28;9510;-60
2023/11/26 07:08:15;;;;;;;;;;;;;;;25.37;41.27;94204.38;5068191;28;9449;-59
2023/11/26 07:14:43;;;;;;;;;;;;;;;25.37;41.33;94200.88;5067897;28;7239;-59
2023/11/26 07:17:36;;;;;;;;;;;;;;;25.41;41.15;94213.09;4993740;28;7099;-59
2023/11/26 07:20:17;;;;;;;;;;;;;;;25.43;41.36;94207.84;4982385;28;7296;-60
2023/11/26 07:22:53;;;;;;;;;;;;;;;25.42;41.06;94213.88;4992403;28;9231;-60
2023/11/26 07:25:32;;;;;;;;;;;;;;;25.46;41.00;94210.84;4976189;28;7242;-60
2023/11/26 07:32:08;;;;;;;;;;;;;;;25.48;40.83;94217.31;4987825;28;7366;-60
2023/11/26 07:34:47;;;;;;;;;;;;;;;25.47;41.31;94207.56;4912360;29;8792;-60
2023/11/26 07:37:16;;;;;;;;;;;;;;;25.52;41.33;94214.28;4932028;29;7401;-60
2023/11/26 07:39:45;;;;;;;;;;;;;;;25.53;41.48;94219.28;4927146;29;6981;-59
2023/11/26 07:42:11;;;;;;;;;;;;;;;25.52;40.77;94222.53;4932156;28;7326;-60
2023/11/26 07:44:39;;;;;;;;;;;;;;;25.51;40.86;94227.31;4941774;28;7217;-60
2023/11/26 07:47:05;;;;;;;;;;;;;;;25.55;41.60;94229.78;4933779;28;7806;-60
2023/11/26 07:49:36;;;;;;;;;;;;;;;25.58;41.41;94228.78;4938796;28;7064;-60
2023/11/26 07:52:03;;;;;;;;;;;;;;;25.61;40.59;94235.97;4932118;28;7279;-60
2023/11/26 07:54:48;;;;;;;;;;;;;;;25.59;40.51;94247.53;5003572;28;7191;-60
2023/11/26 07:57:23;;;;;;;;;;;;;;;25.61;41.17;94239.50;4996973;28;7142;-60
2023/11/26 08:00:06;;;;;;;;;;;;;;;25.61;40.52;94236.75;5001792;28;7110;-60
2023/11/26 08:02:50;;;;;;;;;;;;;;;25.61;40.93;94244.25;5010448;28;7178;-63
2023/11/26 08:05:37;;;;;;;;;;;;;;;25.60;40.62;94251.03;5014828;28;7253;-63
2023/11/26 08:08:39;;;;;;;;;;;;;;;25.61;41.27;94258.78;4995260;28;9050;-63
2023/11/26 08:11:19;;;;;;;;;;;;;;;25.64;40.46;94257.00;4966917;28;7073;-63
2023/11/26 08:13:57;;;;;;;;;;;;;;;25.62;40.94;94243.00;4977395;28;8974;-63
2023/11/26 08:16:57;;;;;;;;;;;;;;;25.65;40.54;94258.47;4974189;28;7246;-64
2023/11/26 08:19:32;;;;;;;;;;;;;;;25.64;40.96;94252.25;4966869;28;7487;-64
2023/11/26 08:22:07;;;;;;;;;;;;;;;25.65;41.21;94258.47;4954619;28;6852;-63
2023/11/26 08:24:49;;;;;;;;;;;;;;;25.64;40.26;94252.25;4973613;28;7196;-63
2023/11/26 08:27:53;;;;;;;;;;;;;;;25.65;40.81;94264.00;4950318;28;7509;-64
2023/11/26 08:30:36;;;;;;;;;;;;;;;25.63;40.05;94256.25;4931009;28;7241;-63
2023/11/26 08:33:05;;;;;;;;;;;;;;;25.64;39.14;94257.75;4938831;28;9316;-63
2023/11/26 08:36:02;;;;;;;;;;;;;;;25.62;39.22;94256.78;4958733;28;9085;-63
2023/11/26 08:38:31;;;;;;;;;;;;;;;25.61;38.60;94258.78;4964981;28;7259;-62
2023/11/26 08:41:21;;;;;;;;;;;;;;;25.62;38.96;94265.75;4954266;28;7270;-62
2023/11/26 08:43:49;;;;;;;;;;;;;;;25.63;38.76;94267.25;4940496;28;7235;-62
2023/11/26 08:46:16;;;;;;;;;;;;;;;25.66;39.35;94269.00;4983613;28;9042;-62
2023/11/26 08:49:22;;;;;;;;;;;;;;;25.64;38.45;94268.03;5033772;28;7238;-63
2023/11/26 08:51:52;;;;;;;;;;;;;;;25.63;38.36;94261.75;4994162;28;7739;-62
2023/11/26 08:54:34;;;;;;;;;;;;;;;25.61;39.27;94258.03;4994126;28;8876;-63
2023/11/26 08:57:21;;;;;;;;;;;;;;;25.60;39.26;94260.03;4987074;28;8815;-62
2023/11/26 08:59:59;;;;;;;;;;;;;;;25.61;38.90;94258.03;4979272;28;7197;-63
2023/11/26 09:02:43;;;;;;;;;;;;;;;25.58;39.03;94254.28;4974733;28;7240;-62
2023/11/26 09:06:04;;;;;;;;;;;;;;;25.58;38.97;94265.31;5012769;28;7604;-62
2023/11/26 09:08:40;;;;;;;;;;;;;;;25.61;39.60;94258.78;4955857;28;6873;-63
2023/11/26 09:11:07;;;;;;;;;;;;;;;25.63;38.37;94256.25;4969996;28;9015;-63
2023/11/26 09:13:33;;;;;;;;;;;;;;;25.61;38.51;94247.75;4973805;28;6969;-60
2023/11/26 09:16:03;;;;;;;;;;;;;;;25.59;38.31;94253.03;4953442;28;7146;-60
2023/11/26 09:18:39;;;;;;;;;;;;;;;25.60;39.05;94251.03;4949131;28;9023;-61
2023/11/26 09:21:06;;;;;;;;;;;;;;;25.60;39.29;94243.50;4957506;28;7322;-60
2023/11/26 09:24:07;;;;;;;;;;;;;;;25.64;38.68;94251.50;4972455;28;8786;-60
2023/11/26 09:27:06;;;;;;;;;;;;;;;25.63;39.35;94252.75;4965637;28;7021;-60
2023/11/26 09:29:41;;;;;;;;;;;;;;;25.62;39.43;94254.75;4993502;28;7210;-61
2023/11/26 09:32:43;;;;;;;;;;;;;;;25.62;38.80;94254.03;4998859;28;7238;-60
2023/11/26 09:35:27;;;;;;;;;;;;;;;25.57;39.55;94255.56;4914653;29;7289;-59
2023/11/26 09:38:26;;;;;;;;;;;;;;;25.57;39.29;94255.56;4920954;29;9360;-59
2023/11/26 09:40:54;;;;;;;;;;;;;;;25.51;39.42;94249.34;4889121;29;6981;-59
2023/11/26 09:43:34;;;;;;;;;;;;;;;25.52;39.62;94253.59;4912595;29;9079;-59
2023/11/26 09:46:21;;;;;;;;;;;;;;;25.50;40.01;94253.34;4909226;29;9435;-59
2023/11/26 09:49:25;;;;;;;;;;;;;;;25.48;40.12;94255.88;4917480;29;9504;-59
2023/11/26 09:52:02;;;;;;;;;;;;;;;25.52;39.68;94239.81;4916112;29;7044;-60
2023/11/26 09:54:55;;;;;;;;;;;;;;;25.55;38.89;94249.06;4916884;29;7046;-61
2023/11/26 09:57:47;;;;;;;;;;;;;;;25.59;39.27;94244.78;4913522;29;7254;-60
2023/11/26 10:00:23;;;;;;;;;;;;;;;25.61;39.67;94241.50;4908638;29;9325;-60
2023/11/26 10:03:18;;;;;;;;;;;;;;;25.62;39.32;94256.78;4917094;29;9095;-60
2023/11/26 10:06:22;;;;;;;;;;;;;;;25.64;39.52;94255.00;4922127;29;7239;-61
2023/11/26 10:09:13;;;;;;;;;;;;;;;25.61;39.43;94255.25;4921517;29;7022;-60
2023/11/26 10:11:51;;;;;;;;;;;;;;;25.54;39.70;94244.81;4976545;28;9086;-60
2023/11/26 10:14:44;;;;;;;;;;;;;;;25.60;39.79;94256.53;5007887;28;9364;-60
2023/11/26 10:17:13;;;;;;;;;;;;;;;25.61;39.76;94241.50;5056567;28;8221;-60
2023/11/26 10:20:17;;;;;;;;;;;;;;;25.57;39.75;94239.03;5063480;28;7339;-60
2023/11/26 10:22:45;;;;;;;;;;;;;;;25.57;40.58;94236.28;5042226;28;9442;-61
2023/11/26 10:25:13;;;;;;;;;;;;;;;25.56;39.70;94231.25;5037938;28;7083;-61
2023/11/26 10:28:23;;;;;;;;;;;;;;;25.58;40.84;94240.50;5039299;28;7234;-61
2023/11/26 10:31:15;;;;;;;;;;;;;;;25.60;41.03;94232.47;5031980;28;9310;-61
2023/11/26 10:34:18;;;;;;;;;;;;;;;25.65;40.81;94228.19;5047384;28;6959;-60
2023/11/26 10:36:54;;;;;;;;;;;;;;;25.64;40.46;94218.44;4988732;28;7012;-60
2023/11/26 10:39:27;;;;;;;;;;;;;;;25.63;41.06;94209.44;4963323;28;7637;-61
2023/11/26 10:41:54;;;;;;;;;;;;;;;25.66;40.50;94216.66;4987496;28;7062;-60
2023/11/26 10:44:26;;;;;;;;;;;;;;;25.68;40.86;94205.88;4976029;28;7098;-61
2023/11/26 10:47:05;;;;;;;;;;;;;;;25.70;40.68;94200.59;4988207;28;9178;-60
2023/11/26 10:49:45;;;;;;;;;;;;;;;25.73;40.66;94201.59;4975742;28;7203;-61
2023/11/26 10:52:53;;;;;;;;;;;;;;;25.69;40.83;94201.09;4991468;28;7573;-61
2023/11/26 10:55:37;;;;;;;;;;;;;;;25.71;40.86;94198.59;4948797;28;8506;-61
2023/11/26 10:58:19;;;;;;;;;;;;;;;25.72;41.06;94195.31;4950075;28;7281;-62
2023/11/26 11:01:18;;;;;;;;;;;;;;;25.70;41.36;94194.34;4927543;29;7157;-61
2023/11/26 11:04:36;;;;;;;;;;;;;;;25.71;40.71;94191.06;4931574;29;6988;-61
2023/11/26 11:07:34;;;;;;;;;;;;;;;25.70;41.72;94184.06;4884171;29;7397;-61
2023/11/26 11:10:47;;;;;;;;;;;;;;;25.73;41.23;94193.31;4889794;29;7442;-61
2023/11/26 11:13:40;;;;;;;;;;;;;;;25.71;41.12;94196.56;4913057;29;7637;-61
2023/11/26 11:16:09;;;;;;;;;;;;;;;25.68;41.53;94189.34;4913675;29;7260;-61
2023/11/26 11:19:32;;;;;;;;;;;;;;;25.72;40.95;94192.56;4896620;29;9085;-60
2023/11/26 11:22:33;;;;;;;;;;;;;;;25.72;41.11;94203.59;4901854;29;7347;-60
2023/11/26 11:25:30;;;;;;;;;;;;;;;25.73;41.50;94198.81;4888369;29;7006;-60
2023/11/26 11:28:05;;;;;;;;;;;;;;;25.72;42.00;94208.34;4895710;29;7214;-60
2023/11/26 11:30:46;;;;;;;;;;;;;;;25.72;42.23;94208.34;4897856;29;7642;-60
2023/11/26 11:33:14;;;;;;;;;;;;;;;25.71;42.35;94204.09;4914351;29;9455;-63
2023/11/26 11:35:41;;;;;;;;;;;;;;;25.72;41.51;94203.59;4913794;29;8433;-63
2023/11/26 11:38:20;;;;;;;;;;;;;;;25.70;42.52;94205.34;4914619;29;7086;-63
2023/11/26 11:41:13;;;;;;;;;;;;;;;25.69;42.17;94209.34;4914387;29;7297;-63
2023/11/26 11:44:34;;;;;;;;;;;;;;;25.72;41.88;94203.59;4978327;28;7140;-63
2023/11/26 11:47:02;;;;;;;;;;;;;;;25.76;41.64;94198.53;5011436;28;9146;-63
2023/11/26 11:50:06;;;;;;;;;;;;;;;25.81;41.79;94203.25;4994986;28;8824;-63
2023/11/26 11:52:33;;;;;;;;;;;;;;;25.80;41.46;94198.22;5001821;28;7263;-64
2023/11/26 11:55:55;;;;;;;;;;;;;;;25.79;41.82;94194.75;5022325;28;7247;-63
2023/11/26 11:58:31;;;;;;;;;;;;;;;25.80;41.36;94192.72;5017780;28;8764;-63
2023/11/26 12:01:44;;;;;;;;;;;;;;;25.82;41.50;94174.41;5026463;28;7242;-63
2023/11/26 12:04:50;;;;;;;;;;;;;;;25.86;41.80;94179.66;5023932;28;7262;-63
2023/11/26 12:07:42;;;;;;;;;;;;;;;25.87;41.73;94175.63;4969680;28;9145;-63
2023/11/26 12:10:21;;;;;;;;;;;;;;;25.87;41.29;94164.59;4970325;28;6993;-63
2023/11/26 12:13:09;;;;;;;;;;;;;;;25.90;42.17;94175.31;4963727;28;7226;-63
2023/11/26 12:15:39;;;;;;;;;;;;;;;25.95;41.88;94173.78;4971123;28;7275;-63
2023/11/26 12:18:24;;;;;;;;;;;;;;;25.97;41.48;94169.22;4970763;28;7257;-64
2023/11/26 12:20:51;;;;;;;;;;;;;;;25.96;41.99;94162.25;4971438;28;7233;-63
2023/11/26 12:23:43;;;;;;;;;;;;;;;26.03;41.77;94158.88;4971507;28;7152;-64
2023/11/26 12:26:20;;;;;;;;;;;;;;;26.05;41.42;94159.13;4960428;28;6966;-64
2023/11/26 12:28:47;;;;;;;;;;;;;;;26.04;41.34;94154.88;4958744;28;7027;-64
2023/11/26 12:31:24;;;;;;;;;;;;;;;26.07;41.72;94153.84;4971174;28;7180;-63
2023/11/26 12:34:03;;;;;;;;;;;;;;;26.12;41.75;94153.03;5001660;28;7412;-64
2023/11/26 12:37:04;;;;;;;;;;;;;;;26.16;41.99;94158.28;5011649;28;9370;-64
2023/11/26 12:39:52;;;;;;;;;;;;;;;26.16;41.84;94152.78;4936868;28;7242;-64
2023/11/26 12:42:34;;;;;;;;;;;;;;;26.23;42.05;94154.19;4964663;28;9390;-61
2023/11/26 12:45:55;;;;;;;;;;;;;;;26.28;41.78;94161.63;5006377;28;7275;-61
2023/11/26 12:48:40;;;;;;;;;;;;;;;26.30;41.71;94162.59;4959134;28;9068;-61
2023/11/26 12:51:19;;;;;;;;;;;;;;;26.32;41.85;94153.81;4948566;29;9129;-61
2023/11/26 12:54:01;;;;;;;;;;;;;;;26.36;41.80;94143.97;4929614;29;9092;-61
2023/11/26 12:56:41;;;;;;;;;;;;;;;26.36;41.87;94149.47;4954306;28;9049;-62
2023/11/26 12:59:08;;;;;;;;;;;;;;;26.40;41.63;94149.97;4947933;28;7244;-61
2023/11/26 13:02:12;;;;;;;;;;;;;;;26.38;41.65;94148.97;4954207;28;7501;-61
2023/11/26 13:05:20;;;;;;;;;;;;;;;26.39;41.72;94145.69;4915805;29;7030;-61
2023/11/26 13:07:51;;;;;;;;;;;;;;;26.40;41.69;94149.97;4912448;29;7300;-60
2023/11/26 13:10:16;;;;;;;;;;;;;;;26.41;41.82;94145.16;4900178;29;7074;-61
2023/11/26 13:12:44;;;;;;;;;;;;;;;26.39;41.84;94137.41;4903991;29;7352;-61
2023/11/26 13:15:26;;;;;;;;;;;;;;;26.38;41.93;94143.47;4929286;28;9485;-61
2023/11/26 13:17:57;;;;;;;;;;;;;;;26.38;41.52;94152.47;4952079;28;7225;-60
2023/11/26 13:20:33;;;;;;;;;;;;;;;26.37;41.47;94151.00;4938637;28;7419;-61
2023/11/26 13:23:20;;;;;;;;;;;;;;;26.35;41.24;94147.25;4967468;28;9080;-61
2023/11/26 13:25:56;;;;;;;;;;;;;;;26.33;41.06;94147.03;4997504;28;7173;-61
2023/11/26 13:28:23;;;;;;;;;;;;;;;26.32;41.62;94148.31;4976269;28;8741;-60
2023/11/26 13:30:59;;;;;;;;;;;;;;;26.31;41.34;94144.06;4973604;28;6993;-61
2023/11/26 13:33:26;;;;;;;;;;;;;;;26.33;40.80;94142.28;4992363;28;6981;-60
2023/11/26 13:35:53;;;;;;;;;;;;;;;26.36;40.66;94148.75;4991476;28;7187;-60
2023/11/26 13:38:20;;;;;;;;;;;;;;;26.39;40.83;94142.94;4995481;28;7009;-61
2023/11/26 13:40:50;;;;;;;;;;;;;;;26.42;40.42;94143.91;5009131;28;7475;-60
2023/11/26 13:43:22;;;;;;;;;;;;;;;26.45;40.29;94140.09;5070192;28;7250;-60
2023/11/26 13:45:53;;;;;;;;;;;;;;;26.45;40.23;94140.09;5060539;28;8901;-60
2023/11/26 13:48:25;;;;;;;;;;;;;;;26.41;38.87;94142.41;5068632;28;7198;-61
2023/11/26 13:50:52;;;;;;;;;;;;;;;26.45;38.84;94145.59;5071088;28;9095;-61
2023/11/26 13:53:22;;;;;;;;;;;;;;;26.45;38.13;94145.59;5061646;28;9071;-61
2023/11/26 13:55:52;;;;;;;;;;;;;;;26.41;38.13;94150.69;5071187;28;7321;-61
2023/11/26 13:58:20;;;;;;;;;;;;;;;26.41;37.61;94150.69;5081588;28;9476;-60
2023/11/26 14:00:48;;;;;;;;;;;;;;;26.39;36.53;94156.72;5073792;28;7637;-60
2023/11/26 14:03:50;;;;;;;;;;;;;;;26.39;36.11;94150.47;5054355;28;9373;-61
2023/11/26 14:06:19;;;;;;;;;;;;;;;26.37;36.31;94141.97;5059539;28;6986;-60
2023/11/26 14:09:19;;;;;;;;;;;;;;;26.36;35.33;94143.25;5063209;28;7232;-60
2023/11/26 14:11:55;;;;;;;;;;;;;;;26.27;35.03;94132.59;5031697;28;8846;-60
2023/11/26 14:14:33;;;;;;;;;;;;;;;26.30;34.66;94145.31;5015906;28;7299;-60
2023/11/26 14:17:32;;;;;;;;;;;;;;;26.27;34.25;94143.59;5028788;28;7071;-60
2023/11/26 14:20:04;;;;;;;;;;;;;;;26.23;34.23;94138.38;4937352;28;7220;-60
2023/11/26 14:23:02;;;;;;;;;;;;;;;26.28;34.28;94143.09;4943789;28;7445;-60
2023/11/26 14:25:32;;;;;;;;;;;;;;;26.31;34.53;94138.53;4878105;29;6993;-60